createdAt,value
2023-04-23T00:24:58.643Z,100199.20
2023-04-23T00:28:30.504Z,100202.67
2023-04-23T00:31:59.981Z,100194.84
2023-04-23T00:47:12.365Z,100192.23
2023-04-23T00:50:41.850Z,100197.30
2023-04-23T00:54:23.106Z,100195.35
2023-04-23T00:58:04.064Z,100192.45
2023-04-23T01:56:07.257Z,100184.30
2023-04-23T01:59:35.390Z,100190.29
2023-04-23T02:03:16.685Z,100182.81
2023-04-23T02:06:58.181Z,100170.77
2023-04-23T02:25:45.435Z,100157.25
2023-04-23T02:29:17.198Z,100161.25
2023-04-23T02:32:46.481Z,100154.35
2023-04-23T02:36:16.143Z,100156.96
2023-04-23T02:39:45.135Z,100157.31
2023-04-23T02:43:13.145Z,100164.49
2023-04-23T03:12:22.822Z,100206.67
2023-04-23T03:16:04.504Z,100199.72
2023-04-23T03:19:18.545Z,100192.88
2023-04-23T03:22:51.015Z,100188.50
2023-04-23T03:41:24.466Z,100182.73
2023-04-23T03:45:11.643Z,100192.88
2023-04-23T03:48:09.828Z,100188.12
2023-04-23T03:51:53.272Z,100183.76
2023-04-23T03:55:22.481Z,100175.98
2023-04-23T03:58:57.621Z,100178.98
2023-04-23T04:02:15.846Z,100183.50
2023-04-23T04:09:33.001Z,100186.82
2023-04-23T04:31:16.403Z,100210.10
2023-04-23T04:34:46.718Z,100226.25
2023-04-23T04:38:16.265Z,100226.69
2023-04-23T04:41:45.381Z,100224.91
2023-04-23T04:45:20.834Z,100224.06
2023-04-23T04:48:54.112Z,100228.04
2023-04-23T04:52:34.674Z,100233.88
2023-04-23T05:10:59.942Z,100266.69
2023-04-23T05:14:35.643Z,100279.10
2023-04-23T05:18:14.620Z,100272.73
2023-04-23T05:21:53.694Z,100270.50
2023-04-23T05:25:25.978Z,100267.73
2023-04-23T05:54:11.268Z,100286.30
2023-04-23T05:57:47.298Z,100302.75
2023-04-23T06:01:28.344Z,100296.61
2023-04-23T06:05:16.196Z,100293.67
2023-04-23T06:27:46.665Z,100308.18
2023-04-23T06:31:18.829Z,100301.38
2023-04-23T06:38:48.452Z,100310.13
2023-04-23T06:42:25.669Z,100311.61
2023-04-23T06:45:59.379Z,100288.08
2023-04-23T06:49:28.111Z,100248.22
2023-04-23T07:17:33.444Z,100190.27
2023-04-23T07:20:22.902Z,100181.80
2023-04-23T07:23:09.949Z,100153.20
2023-04-23T07:25:38.819Z,100143.97
2023-04-23T07:28:35.316Z,100139.77
2023-04-23T07:31:18.879Z,100125.08
2023-04-23T07:33:59.885Z,100113.40
2023-04-23T07:36:37.485Z,100084.90
2023-04-23T07:39:15.019Z,100067.42
2023-04-23T07:41:48.270Z,100057.59
2023-04-23T07:44:22.818Z,100067.09
2023-04-23T07:46:51.845Z,100053.29
2023-04-23T07:49:25.749Z,100050.03
2023-04-23T07:52:01.686Z,100068.95
2023-04-23T07:54:30.117Z,100064.05
2023-04-23T07:56:59.090Z,100034.69
2023-04-23T07:59:27.705Z,100014.40
2023-04-23T08:01:56.270Z,100006.77
2023-04-23T08:04:25.185Z,100013.67
2023-04-23T08:06:54.660Z,100009.98
2023-04-23T08:09:23.927Z,100012.09
2023-04-23T11:24:43.592Z,99574.20
2023-04-23T14:52:30.688Z,99830.13
2023-04-23T14:55:59.434Z,99825.98
2023-04-23T14:59:29.280Z,99819.54
2023-04-23T15:02:59.496Z,99818.77
2023-04-23T15:06:33.747Z,99819.15
2023-04-23T15:13:30.353Z,99820.85
2023-04-23T15:31:38.216Z,99860.24
2023-04-23T15:35:07.968Z,99861.63
2023-04-23T15:38:37.058Z,99857.41
2023-04-23T15:42:12.070Z,99853.95
2023-04-23T15:45:43.370Z,99852.55
2023-04-23T15:49:21.334Z,99855.75
2023-04-23T15:56:27.964Z,99888.35
2023-04-23T16:26:01.223Z,99940.36
2023-04-23T16:29:32.765Z,99941.80
2023-04-23T16:51:45.593Z,99955.70
2023-04-23T17:28:32.189Z,100002.23
2023-04-23T17:32:05.981Z,100001.71
2023-04-23T17:35:43.098Z,99996.73
2023-04-23T17:39:21.752Z,99992.61
2023-04-23T17:54:17.559Z,100013.89
2023-04-23T18:01:54.874Z,100019.17
2023-04-23T18:05:29.545Z,100018.15
2023-04-23T18:08:44.443Z,100019.79
2023-04-23T18:30:39.089Z,100050.37
2023-04-23T18:34:29.526Z,100050.92
2023-04-23T18:37:58.089Z,100046.59
2023-04-23T18:41:31.661Z,100045.13
2023-04-23T18:45:16.190Z,100057.06
2023-04-23T18:48:46.887Z,100063.38
2023-04-23T18:52:19.648Z,100069.55
2023-04-23T19:19:01.996Z,100097.02
2023-04-23T19:22:49.886Z,100103.02
2023-04-23T19:30:36.943Z,100116.06
2023-04-23T19:38:16.423Z,100115.74
2023-04-23T20:08:00.676Z,100120.23
2023-04-23T20:11:34.587Z,100134.30
2023-04-23T20:15:16.157Z,100123.35
2023-04-23T20:37:57.690Z,100134.17
2023-04-23T20:57:37.633Z,100144.71
2023-04-23T21:01:16.431Z,100158.16
2023-04-23T21:04:49.627Z,100141.96
2023-04-23T21:30:17.238Z,100118.10
2023-04-23T21:33:46.978Z,100138.16
2023-04-23T21:37:17.618Z,100128.75
2023-04-23T21:40:50.223Z,100117.47
2023-04-23T21:44:28.923Z,100108.73
2023-04-23T21:59:10.522Z,100093.01
2023-04-23T22:02:44.650Z,100113.61
2023-04-23T22:06:36.711Z,100097.91
2023-04-23T22:10:34.546Z,100083.30
2023-04-23T22:14:07.944Z,100104.52
2023-04-23T22:17:50.802Z,100098.94
2023-04-23T22:37:12.413Z,100071.86
2023-04-23T22:40:44.777Z,100077.38
2023-04-23T22:44:21.770Z,100059.59
2023-04-23T23:10:01.216Z,100014.78
2023-04-23T23:13:34.068Z,100029.77
2023-04-23T23:21:09.260Z,100017.48
2023-04-23T23:24:41.686Z,100010.05
2023-04-23T23:32:23.619Z,100006.84
2023-04-23T23:35:40.484Z,100018.65
